sensor_id;sensor_type;location;lat;lon;timestamp;P1;durP1;ratioP1;P2;durP2;ratioP2
38567;SDS011;24338;48.280;10.970;2022-11-15T00:00:56;10.90;;;6.75;;
38567;SDS011;24338;48.280;10.970;2022-11-15T00:03:24;11.60;;;7.15;;
38567;SDS011;24338;48.280;10.970;2022-11-15T00:05:52;12.63;;;7.72;;
38567;SDS011;24338;48.280;10.970;2022-11-15T00:08:19;10.35;;;7.85;;
38567;SDS011;24338;48.280;10.970;2022-11-15T00:10:59;12.23;;;7.78;;
38567;SDS011;24338;48.280;10.970;2022-11-15T00:13:27;12.20;;;7.18;;
38567;SDS011;24338;48.280;10.970;2022-11-15T00:15:59;11.00;;;6.68;;
38567;SDS011;24338;48.280;10.970;2022-11-15T00:18:27;10.48;;;7.20;;
38567;SDS011;24338;48.280;10.970;2022-11-15T00:20:54;11.52;;;6.90;;
38567;SDS011;24338;48.280;10.970;2022-11-15T00:23:22;9.98;;;6.78;;
38567;SDS011;24338;48.280;10.970;2022-11-15T00:25:56;11.00;;;7.75;;
38567;SDS011;24338;48.280;10.970;2022-11-15T00:28:24;10.88;;;6.85;;
38567;SDS011;24338;48.280;10.970;2022-11-15T00:30:51;12.80;;;6.97;;
38567;SDS011;24338;48.280;10.970;2022-11-15T00:33:18;10.80;;;7.25;;
38567;SDS011;24338;48.280;10.970;2022-11-15T00:35:45;9.95;;;6.55;;
38567;SDS011;24338;48.280;10.970;2022-11-15T00:38:12;9.45;;;6.93;;
38567;SDS011;24338;48.280;10.970;2022-11-15T00:40:39;10.68;;;7.07;;
38567;SDS011;24338;48.280;10.970;2022-11-15T00:43:06;11.25;;;7.47;;
38567;SDS011;24338;48.280;10.970;2022-11-15T00:45:33;9.63;;;6.82;;
38567;SDS011;24338;48.280;10.970;2022-11-15T00:48:00;10.27;;;7.25;;
38567;SDS011;24338;48.280;10.970;2022-11-15T00:50:27;12.40;;;6.75;;
38567;SDS011;24338;48.280;10.970;2022-11-15T00:52:54;11.20;;;7.60;;
38567;SDS011;24338;48.280;10.970;2022-11-15T00:55:20;12.63;;;7.72;;
38567;SDS011;24338;48.280;10.970;2022-11-15T00:57:47;13.95;;;7.50;;
38567;SDS011;24338;48.280;10.970;2022-11-15T01:00:14;13.77;;;7.75;;
38567;SDS011;24338;48.280;10.970;2022-11-15T01:02:41;10.50;;;7.45;;
38567;SDS011;24338;48.280;10.970;2022-11-15T01:05:08;10.70;;;7.72;;
38567;SDS011;24338;48.280;10.970;2022-11-15T01:07:35;10.07;;;7.15;;
38567;SDS011;24338;48.280;10.970;2022-11-15T01:10:03;12.52;;;7.22;;
38567;SDS011;24338;48.280;10.970;2022-11-15T01:12:30;14.52;;;7.20;;
38567;SDS011;24338;48.280;10.970;2022-11-15T01:14:58;9.23;;;6.68;;
38567;SDS011;24338;48.280;10.970;2022-11-15T01:17:24;11.27;;;7.55;;
38567;SDS011;24338;48.280;10.970;2022-11-15T01:19:51;10.90;;;7.40;;
38567;SDS011;24338;48.280;10.970;2022-11-15T01:22:18;11.10;;;7.00;;
38567;SDS011;24338;48.280;10.970;2022-11-15T01:24:45;11.70;;;7.15;;
38567;SDS011;24338;48.280;10.970;2022-11-15T01:27:12;11.07;;;6.78;;
38567;SDS011;24338;48.280;10.970;2022-11-15T01:29:39;13.85;;;7.93;;
38567;SDS011;24338;48.280;10.970;2022-11-15T01:32:06;9.80;;;6.43;;
38567;SDS011;24338;48.280;10.970;2022-11-15T01:34:33;8.88;;;6.50;;
38567;SDS011;24338;48.280;10.970;2022-11-15T01:37:00;9.93;;;7.05;;
38567;SDS011;24338;48.280;10.970;2022-11-15T01:39:27;9.23;;;6.53;;
38567;SDS011;24338;48.280;10.970;2022-11-15T01:41:54;10.98;;;6.30;;
38567;SDS011;24338;48.280;10.970;2022-11-15T01:46:57;8.57;;;5.75;;
38567;SDS011;24338;48.280;10.970;2022-11-15T01:49:27;9.80;;;6.40;;
38567;SDS011;24338;48.280;10.970;2022-11-15T01:51:58;9.30;;;6.45;;
38567;SDS011;24338;48.280;10.970;2022-11-15T01:54:27;10.07;;;6.47;;
38567;SDS011;24338;48.280;10.970;2022-11-15T01:59:42;9.75;;;6.43;;
38567;SDS011;24338;48.280;10.970;2022-11-15T02:02:11;10.02;;;6.88;;
38567;SDS011;24338;48.280;10.970;2022-11-15T02:04:56;8.57;;;6.32;;
38567;SDS011;24338;48.280;10.970;2022-11-15T02:07:23;9.05;;;5.75;;
38567;SDS011;24338;48.280;10.970;2022-11-15T02:09:50;8.25;;;6.03;;
38567;SDS011;24338;48.280;10.970;2022-11-15T02:12:19;11.90;;;7.85;;
38567;SDS011;24338;48.280;10.970;2022-11-15T02:14:50;12.02;;;7.93;;
38567;SDS011;24338;48.280;10.970;2022-11-15T02:17:29;11.02;;;7.57;;
38567;SDS011;24338;48.280;10.970;2022-11-15T02:20:13;9.35;;;6.95;;
38567;SDS011;24338;48.280;10.970;2022-11-15T02:31:45;8.05;;;5.38;;
38567;SDS011;24338;48.280;10.970;2022-11-15T02:42:33;9.90;;;6.10;;
38567;SDS011;24338;48.280;10.970;2022-11-15T02:45:28;13.27;;;7.18;;
38567;SDS011;24338;48.280;10.970;2022-11-15T02:48:05;8.70;;;6.07;;
38567;SDS011;24338;48.280;10.970;2022-11-15T02:50:35;6.80;;;5.22;;
38567;SDS011;24338;48.280;10.970;2022-11-15T02:53:02;9.23;;;6.55;;
38567;SDS011;24338;48.280;10.970;2022-11-15T03:00:23;8.75;;;5.93;;
38567;SDS011;24338;48.280;10.970;2022-11-15T03:10:56;9.40;;;6.65;;
38567;SDS011;24338;48.280;10.970;2022-11-15T03:16:25;9.60;;;5.55;;
38567;SDS011;24338;48.280;10.970;2022-11-15T03:19:09;9.90;;;6.70;;
38567;SDS011;24338;48.280;10.970;2022-11-15T03:21:40;8.32;;;5.40;;
38567;SDS011;24338;48.280;10.970;2022-11-15T03:24:08;9.30;;;5.82;;
38567;SDS011;24338;48.280;10.970;2022-11-15T03:26:36;9.40;;;5.97;;
38567;SDS011;24338;48.280;10.970;2022-11-15T03:29:26;8.45;;;6.45;;
38567;SDS011;24338;48.280;10.970;2022-11-15T03:32:03;8.00;;;5.55;;
38567;SDS011;24338;48.280;10.970;2022-11-15T03:34:51;7.60;;;5.60;;
38567;SDS011;24338;48.280;10.970;2022-11-15T03:38:11;10.05;;;5.43;;
38567;SDS011;24338;48.280;10.970;2022-11-15T03:40:42;8.48;;;5.65;;
38567;SDS011;24338;48.280;10.970;2022-11-15T03:43:29;7.97;;;5.65;;
38567;SDS011;24338;48.280;10.970;2022-11-15T03:46:16;7.00;;;4.68;;
38567;SDS011;24338;48.280;10.970;2022-11-15T03:48:50;9.02;;;5.10;;
38567;SDS011;24338;48.280;10.970;2022-11-15T03:51:22;10.07;;;6.32;;
38567;SDS011;24338;48.280;10.970;2022-11-15T03:53:49;8.73;;;5.40;;
38567;SDS011;24338;48.280;10.970;2022-11-15T03:56:16;9.93;;;6.45;;
38567;SDS011;24338;48.280;10.970;2022-11-15T03:58:43;9.02;;;5.80;;
38567;SDS011;24338;48.280;10.970;2022-11-15T04:01:10;11.45;;;8.07;;
38567;SDS011;24338;48.280;10.970;2022-11-15T04:03:37;13.00;;;7.88;;
38567;SDS011;24338;48.280;10.970;2022-11-15T04:06:04;12.27;;;7.75;;
38567;SDS011;24338;48.280;10.970;2022-11-15T04:08:31;11.57;;;7.25;;
38567;SDS011;24338;48.280;10.970;2022-11-15T04:10:58;9.05;;;6.60;;
38567;SDS011;24338;48.280;10.970;2022-11-15T04:13:27;9.20;;;6.38;;
38567;SDS011;24338;48.280;10.970;2022-11-15T04:15:55;10.75;;;6.38;;
38567;SDS011;24338;48.280;10.970;2022-11-15T04:18:21;7.90;;;6.18;;
38567;SDS011;24338;48.280;10.970;2022-11-15T04:20:48;9.18;;;6.22;;
38567;SDS011;24338;48.280;10.970;2022-11-15T04:23:34;9.48;;;5.95;;
38567;SDS011;24338;48.280;10.970;2022-11-15T04:26:20;8.15;;;5.78;;
38567;SDS011;24338;48.280;10.970;2022-11-15T04:28:48;9.43;;;5.70;;
38567;SDS011;24338;48.280;10.970;2022-11-15T04:31:33;9.68;;;6.50;;
38567;SDS011;24338;48.280;10.970;2022-11-15T04:34:00;11.52;;;6.35;;
38567;SDS011;24338;48.280;10.970;2022-11-15T04:36:27;9.75;;;6.97;;
38567;SDS011;24338;48.280;10.970;2022-11-15T04:39:13;9.90;;;5.68;;
38567;SDS011;24338;48.280;10.970;2022-11-15T04:41:39;9.13;;;5.80;;
38567;SDS011;24338;48.280;10.970;2022-11-15T04:44:06;10.95;;;7.15;;
38567;SDS011;24338;48.280;10.970;2022-11-15T04:46:33;12.15;;;6.68;;
38567;SDS011;24338;48.280;10.970;2022-11-15T04:49:00;16.27;;;8.70;;
38567;SDS011;24338;48.280;10.970;2022-11-15T04:51:27;19.95;;;11.05;;
38567;SDS011;24338;48.280;10.970;2022-11-15T04:53:54;17.75;;;9.77;;
38567;SDS011;24338;48.280;10.970;2022-11-15T04:56:21;16.98;;;8.43;;
38567;SDS011;24338;48.280;10.970;2022-11-15T04:58:50;13.88;;;7.70;;
38567;SDS011;24338;48.280;10.970;2022-11-15T05:01:17;13.57;;;8.18;;
38567;SDS011;24338;48.280;10.970;2022-11-15T05:03:44;12.32;;;6.63;;
38567;SDS011;24338;48.280;10.970;2022-11-15T05:06:30;8.55;;;5.88;;
38567;SDS011;24338;48.280;10.970;2022-11-15T05:08:57;9.05;;;5.55;;
38567;SDS011;24338;48.280;10.970;2022-11-15T05:11:24;8.95;;;5.90;;
38567;SDS011;24338;48.280;10.970;2022-11-15T05:13:53;7.65;;;5.28;;
38567;SDS011;24338;48.280;10.970;2022-11-15T05:16:20;8.00;;;5.50;;
38567;SDS011;24338;48.280;10.970;2022-11-15T05:18:46;9.48;;;5.13;;
38567;SDS011;24338;48.280;10.970;2022-11-15T05:21:17;8.65;;;5.22;;
38567;SDS011;24338;48.280;10.970;2022-11-15T05:23:45;8.20;;;5.13;;
38567;SDS011;24338;48.280;10.970;2022-11-15T05:26:12;9.93;;;6.40;;
38567;SDS011;24338;48.280;10.970;2022-11-15T05:28:41;9.25;;;5.40;;
38567;SDS011;24338;48.280;10.970;2022-11-15T05:31:12;7.68;;;5.07;;
38567;SDS011;24338;48.280;10.970;2022-11-15T05:33:40;8.60;;;5.07;;
38567;SDS011;24338;48.280;10.970;2022-11-15T05:39:02;7.25;;;5.45;;
38567;SDS011;24338;48.280;10.970;2022-11-15T05:41:32;8.38;;;5.68;;
38567;SDS011;24338;48.280;10.970;2022-11-15T05:44:07;8.60;;;5.60;;
38567;SDS011;24338;48.280;10.970;2022-11-15T05:46:36;8.50;;;5.22;;
38567;SDS011;24338;48.280;10.970;2022-11-15T05:49:06;8.55;;;6.07;;
38567;SDS011;24338;48.280;10.970;2022-11-15T05:51:35;8.07;;;6.18;;
38567;SDS011;24338;48.280;10.970;2022-11-15T05:54:02;9.60;;;6.72;;
38567;SDS011;24338;48.280;10.970;2022-11-15T05:56:29;11.20;;;6.18;;
38567;SDS011;24338;48.280;10.970;2022-11-15T05:58:56;17.50;;;12.60;;
38567;SDS011;24338;48.280;10.970;2022-11-15T06:01:25;14.13;;;10.48;;
38567;SDS011;24338;48.280;10.970;2022-11-15T06:03:54;18.05;;;11.70;;
38567;SDS011;24338;48.280;10.970;2022-11-15T06:06:21;15.93;;;10.10;;
38567;SDS011;24338;48.280;10.970;2022-11-15T06:08:47;16.98;;;10.95;;
38567;SDS011;24338;48.280;10.970;2022-11-15T06:11:14;15.93;;;11.32;;
38567;SDS011;24338;48.280;10.970;2022-11-15T06:13:41;17.23;;;11.93;;
38567;SDS011;24338;48.280;10.970;2022-11-15T06:16:08;19.00;;;11.77;;
38567;SDS011;24338;48.280;10.970;2022-11-15T06:18:35;14.30;;;10.45;;
38567;SDS011;24338;48.280;10.970;2022-11-15T06:21:03;19.63;;;12.55;;
38567;SDS011;24338;48.280;10.970;2022-11-15T06:23:34;17.23;;;12.50;;
38567;SDS011;24338;48.280;10.970;2022-11-15T06:26:01;21.60;;;12.88;;
38567;SDS011;24338;48.280;10.970;2022-11-15T06:28:29;16.95;;;11.02;;
38567;SDS011;24338;48.280;10.970;2022-11-15T06:31:04;14.15;;;9.27;;
38567;SDS011;24338;48.280;10.970;2022-11-15T06:33:32;11.35;;;7.05;;
38567;SDS011;24338;48.280;10.970;2022-11-15T06:36:03;8.50;;;6.75;;
38567;SDS011;24338;48.280;10.970;2022-11-15T06:41:03;10.35;;;6.35;;
38567;SDS011;24338;48.280;10.970;2022-11-15T06:43:31;10.10;;;6.95;;
38567;SDS011;24338;48.280;10.970;2022-11-15T06:45:59;11.65;;;7.85;;
38567;SDS011;24338;48.280;10.970;2022-11-15T06:48:27;11.85;;;7.38;;
38567;SDS011;24338;48.280;10.970;2022-11-15T06:50:55;15.13;;;7.90;;
38567;SDS011;24338;48.280;10.970;2022-11-15T06:53:26;13.93;;;7.95;;
38567;SDS011;24338;48.280;10.970;2022-11-15T06:55:57;11.50;;;8.02;;
38567;SDS011;24338;48.280;10.970;2022-11-15T06:58:25;13.15;;;8.52;;
38567;SDS011;24338;48.280;10.970;2022-11-15T07:00:52;13.95;;;8.02;;
38567;SDS011;24338;48.280;10.970;2022-11-15T07:03:20;15.15;;;8.45;;
38567;SDS011;24338;48.280;10.970;2022-11-15T07:05:51;16.30;;;10.30;;
38567;SDS011;24338;48.280;10.970;2022-11-15T07:08:20;21.52;;;12.18;;
38567;SDS011;24338;48.280;10.970;2022-11-15T07:10:47;15.48;;;9.57;;
38567;SDS011;24338;48.280;10.970;2022-11-15T07:13:14;15.63;;;9.88;;
38567;SDS011;24338;48.280;10.970;2022-11-15T07:15:42;18.83;;;9.82;;
38567;SDS011;24338;48.280;10.970;2022-11-15T07:18:08;13.68;;;8.00;;
38567;SDS011;24338;48.280;10.970;2022-11-15T07:20:35;15.90;;;9.50;;
38567;SDS011;24338;48.280;10.970;2022-11-15T07:23:03;15.52;;;10.23;;
38567;SDS011;24338;48.280;10.970;2022-11-15T07:25:31;15.60;;;9.35;;
38567;SDS011;24338;48.280;10.970;2022-11-15T07:27:58;12.35;;;9.65;;
38567;SDS011;24338;48.280;10.970;2022-11-15T07:30:27;13.27;;;9.95;;
38567;SDS011;24338;48.280;10.970;2022-11-15T07:32:55;12.32;;;9.15;;
38567;SDS011;24338;48.280;10.970;2022-11-15T07:35:23;16.67;;;10.05;;
38567;SDS011;24338;48.280;10.970;2022-11-15T07:37:54;14.38;;;9.30;;
38567;SDS011;24338;48.280;10.970;2022-11-15T07:40:26;14.48;;;9.23;;
38567;SDS011;24338;48.280;10.970;2022-11-15T07:43:04;14.20;;;9.45;;
38567;SDS011;24338;48.280;10.970;2022-11-15T07:45:32;13.63;;;9.65;;
38567;SDS011;24338;48.280;10.970;2022-11-15T07:48:02;14.25;;;10.32;;
38567;SDS011;24338;48.280;10.970;2022-11-15T07:50:29;16.50;;;10.50;;
38567;SDS011;24338;48.280;10.970;2022-11-15T07:52:57;17.77;;;11.27;;
38567;SDS011;24338;48.280;10.970;2022-11-15T07:55:26;15.60;;;10.48;;
38567;SDS011;24338;48.280;10.970;2022-11-15T07:58:02;16.70;;;11.85;;
38567;SDS011;24338;48.280;10.970;2022-11-15T08:00:30;19.70;;;11.40;;
38567;SDS011;24338;48.280;10.970;2022-11-15T08:05:35;16.13;;;10.77;;
38567;SDS011;24338;48.280;10.970;2022-11-15T08:08:04;16.42;;;11.50;;
38567;SDS011;24338;48.280;10.970;2022-11-15T08:10:32;15.50;;;10.85;;
38567;SDS011;24338;48.280;10.970;2022-11-15T08:13:06;16.95;;;11.10;;
38567;SDS011;24338;48.280;10.970;2022-11-15T08:15:35;17.13;;;11.23;;
38567;SDS011;24338;48.280;10.970;2022-11-15T08:18:05;16.30;;;9.93;;
38567;SDS011;24338;48.280;10.970;2022-11-15T08:20:35;17.50;;;10.43;;
38567;SDS011;24338;48.280;10.970;2022-11-15T08:23:03;14.45;;;9.48;;
38567;SDS011;24338;48.280;10.970;2022-11-15T08:25:31;12.88;;;9.10;;
38567;SDS011;24338;48.280;10.970;2022-11-15T08:28:00;12.65;;;9.45;;
38567;SDS011;24338;48.280;10.970;2022-11-15T08:30:29;15.90;;;9.77;;
38567;SDS011;24338;48.280;10.970;2022-11-15T08:32:57;15.13;;;10.82;;
38567;SDS011;24338;48.280;10.970;2022-11-15T08:35:24;13.40;;;9.90;;
38567;SDS011;24338;48.280;10.970;2022-11-15T08:37:54;11.82;;;8.73;;
38567;SDS011;24338;48.280;10.970;2022-11-15T08:40:21;13.90;;;9.75;;
38567;SDS011;24338;48.280;10.970;2022-11-15T08:42:49;14.88;;;9.82;;
38567;SDS011;24338;48.280;10.970;2022-11-15T08:45:15;16.63;;;10.30;;
38567;SDS011;24338;48.280;10.970;2022-11-15T08:47:42;14.38;;;9.20;;
38567;SDS011;24338;48.280;10.970;2022-11-15T08:52:42;13.48;;;8.02;;
38567;SDS011;24338;48.280;10.970;2022-11-15T08:55:09;15.05;;;8.93;;
38567;SDS011;24338;48.280;10.970;2022-11-15T08:57:36;14.07;;;10.23;;
38567;SDS011;24338;48.280;10.970;2022-11-15T09:00:03;12.70;;;8.68;;
38567;SDS011;24338;48.280;10.970;2022-11-15T09:02:30;12.68;;;9.18;;
38567;SDS011;24338;48.280;10.970;2022-11-15T09:04:57;11.77;;;9.23;;
38567;SDS011;24338;48.280;10.970;2022-11-15T09:07:24;11.88;;;8.52;;
38567;SDS011;24338;48.280;10.970;2022-11-15T09:09:51;11.85;;;8.02;;
38567;SDS011;24338;48.280;10.970;2022-11-15T09:12:18;13.40;;;8.40;;
38567;SDS011;24338;48.280;10.970;2022-11-15T09:14:45;10.30;;;7.78;;
38567;SDS011;24338;48.280;10.970;2022-11-15T09:17:12;10.95;;;8.32;;
38567;SDS011;24338;48.280;10.970;2022-11-15T09:19:39;11.55;;;9.13;;
38567;SDS011;24338;48.280;10.970;2022-11-15T09:22:06;11.80;;;8.40;;
38567;SDS011;24338;48.280;10.970;2022-11-15T09:24:34;10.13;;;7.60;;
38567;SDS011;24338;48.280;10.970;2022-11-15T09:27:01;10.93;;;8.15;;
38567;SDS011;24338;48.280;10.970;2022-11-15T09:29:28;11.35;;;8.27;;
38567;SDS011;24338;48.280;10.970;2022-11-15T09:31:55;10.00;;;7.93;;
38567;SDS011;24338;48.280;10.970;2022-11-15T09:34:22;11.20;;;8.25;;
38567;SDS011;24338;48.280;10.970;2022-11-15T09:36:49;9.98;;;7.18;;
38567;SDS011;24338;48.280;10.970;2022-11-15T09:39:16;12.52;;;7.22;;
38567;SDS011;24338;48.280;10.970;2022-11-15T09:41:48;9.77;;;6.50;;
38567;SDS011;24338;48.280;10.970;2022-11-15T09:44:29;8.00;;;5.43;;
38567;SDS011;24338;48.280;10.970;2022-11-15T09:47:38;9.57;;;6.53;;
38567;SDS011;24338;48.280;10.970;2022-11-15T09:50:08;10.85;;;6.00;;
38567;SDS011;24338;48.280;10.970;2022-11-15T09:52:37;6.55;;;4.70;;
38567;SDS011;24338;48.280;10.970;2022-11-15T09:55:08;6.63;;;4.50;;
38567;SDS011;24338;48.280;10.970;2022-11-15T09:57:58;6.90;;;4.40;;
38567;SDS011;24338;48.280;10.970;2022-11-15T10:00:35;7.32;;;4.20;;
38567;SDS011;24338;48.280;10.970;2022-11-15T10:03:14;5.43;;;3.87;;
38567;SDS011;24338;48.280;10.970;2022-11-15T10:05:45;6.65;;;3.95;;
38567;SDS011;24338;48.280;10.970;2022-11-15T10:11:14;5.78;;;3.88;;
38567;SDS011;24338;48.280;10.970;2022-11-15T10:14:20;5.72;;;3.30;;
38567;SDS011;24338;48.280;10.970;2022-11-15T10:27:53;6.10;;;3.45;;
38567;SDS011;24338;48.280;10.970;2022-11-15T10:30:20;5.78;;;4.28;;
38567;SDS011;24338;48.280;10.970;2022-11-15T10:32:48;7.30;;;4.13;;
38567;SDS011;24338;48.280;10.970;2022-11-15T10:35:28;5.60;;;3.78;;
38567;SDS011;24338;48.280;10.970;2022-11-15T10:38:07;5.63;;;3.55;;
38567;SDS011;24338;48.280;10.970;2022-11-15T10:40:36;8.23;;;3.72;;
38567;SDS011;24338;48.280;10.970;2022-11-15T10:43:05;6.32;;;3.95;;
38567;SDS011;24338;48.280;10.970;2022-11-15T10:45:35;7.57;;;3.53;;
38567;SDS011;24338;48.280;10.970;2022-11-15T10:50:41;4.70;;;2.58;;
38567;SDS011;24338;48.280;10.970;2022-11-15T10:53:32;3.40;;;2.20;;
38567;SDS011;24338;48.280;10.970;2022-11-15T10:56:00;5.63;;;2.45;;
38567;SDS011;24338;48.280;10.970;2022-11-15T10:58:43;5.40;;;2.47;;
38567;SDS011;24338;48.280;10.970;2022-11-15T11:01:21;3.53;;;2.55;;
38567;SDS011;24338;48.280;10.970;2022-11-15T11:04:06;4.18;;;2.65;;
38567;SDS011;24338;48.280;10.970;2022-11-15T11:06:50;4.55;;;2.53;;
38567;SDS011;24338;48.280;10.970;2022-11-15T11:12:04;5.03;;;3.25;;
38567;SDS011;24338;48.280;10.970;2022-11-15T11:14:37;4.50;;;2.85;;
38567;SDS011;24338;48.280;10.970;2022-11-15T11:17:06;4.47;;;2.72;;
38567;SDS011;24338;48.280;10.970;2022-11-15T11:19:53;5.38;;;2.63;;
38567;SDS011;24338;48.280;10.970;2022-11-15T11:22:33;3.92;;;2.25;;
38567;SDS011;24338;48.280;10.970;2022-11-15T11:25:16;4.63;;;2.72;;
38567;SDS011;24338;48.280;10.970;2022-11-15T11:27:57;5.00;;;2.83;;
38567;SDS011;24338;48.280;10.970;2022-11-15T11:30:50;5.53;;;2.25;;
38567;SDS011;24338;48.280;10.970;2022-11-15T11:33:42;3.90;;;2.35;;
38567;SDS011;24338;48.280;10.970;2022-11-15T11:47:12;4.90;;;2.63;;
38567;SDS011;24338;48.280;10.970;2022-11-15T11:50:00;4.60;;;1.98;;
38567;SDS011;24338;48.280;10.970;2022-11-15T11:55:36;3.80;;;2.38;;
38567;SDS011;24338;48.280;10.970;2022-11-15T11:58:17;3.83;;;2.20;;
38567;SDS011;24338;48.280;10.970;2022-11-15T12:00:59;4.93;;;2.13;;
38567;SDS011;24338;48.280;10.970;2022-11-15T12:06:23;5.07;;;2.42;;
38567;SDS011;24338;48.280;10.970;2022-11-15T12:09:10;4.65;;;2.80;;
38567;SDS011;24338;48.280;10.970;2022-11-15T12:14:42;5.97;;;2.67;;
38567;SDS011;24338;48.280;10.970;2022-11-15T12:17:16;4.70;;;2.20;;
38567;SDS011;24338;48.280;10.970;2022-11-15T12:19:47;4.40;;;2.17;;
38567;SDS011;24338;48.280;10.970;2022-11-15T12:22:21;3.95;;;1.70;;
38567;SDS011;24338;48.280;10.970;2022-11-15T12:28:22;4.78;;;2.35;;
38567;SDS011;24338;48.280;10.970;2022-11-15T12:31:40;4.53;;;2.28;;
38567;SDS011;24338;48.280;10.970;2022-11-15T12:36:49;3.70;;;2.05;;
38567;SDS011;24338;48.280;10.970;2022-11-15T12:39:17;4.32;;;2.10;;
38567;SDS011;24338;48.280;10.970;2022-11-15T12:59:47;5.07;;;1.95;;
38567;SDS011;24338;48.280;10.970;2022-11-15T13:02:19;3.42;;;1.98;;
38567;SDS011;24338;48.280;10.970;2022-11-15T13:04:48;6.30;;;2.33;;
38567;SDS011;24338;48.280;10.970;2022-11-15T13:17:44;3.05;;;1.60;;
38567;SDS011;24338;48.280;10.970;2022-11-15T13:33:52;5.35;;;2.13;;
38567;SDS011;24338;48.280;10.970;2022-11-15T13:36:23;5.07;;;2.25;;
38567;SDS011;24338;48.280;10.970;2022-11-15T13:38:57;4.28;;;2.30;;
38567;SDS011;24338;48.280;10.970;2022-11-15T13:41:27;3.83;;;2.15;;
38567;SDS011;24338;48.280;10.970;2022-11-15T13:43:56;3.95;;;2.13;;
38567;SDS011;24338;48.280;10.970;2022-11-15T13:46:25;3.78;;;1.88;;
38567;SDS011;24338;48.280;10.970;2022-11-15T13:49:02;4.05;;;2.20;;
38567;SDS011;24338;48.280;10.970;2022-11-15T13:51:37;4.75;;;2.03;;
38567;SDS011;24338;48.280;10.970;2022-11-15T13:54:22;3.70;;;2.00;;
38567;SDS011;24338;48.280;10.970;2022-11-15T13:57:08;4.05;;;2.10;;
38567;SDS011;24338;48.280;10.970;2022-11-15T13:59:37;3.97;;;2.15;;
38567;SDS011;24338;48.280;10.970;2022-11-15T14:02:13;4.47;;;2.20;;
38567;SDS011;24338;48.280;10.970;2022-11-15T14:04:51;4.90;;;2.40;;
38567;SDS011;24338;48.280;10.970;2022-11-15T14:07:22;4.78;;;2.42;;
38567;SDS011;24338;48.280;10.970;2022-11-15T14:09:51;4.82;;;2.33;;
38567;SDS011;24338;48.280;10.970;2022-11-15T14:12:26;6.68;;;2.63;;
38567;SDS011;24338;48.280;10.970;2022-11-15T14:14:56;5.75;;;2.75;;
38567;SDS011;24338;48.280;10.970;2022-11-15T14:19:54;3.95;;;2.53;;
38567;SDS011;24338;48.280;10.970;2022-11-15T14:22:26;6.47;;;2.83;;
38567;SDS011;24338;48.280;10.970;2022-11-15T14:25:06;4.53;;;2.72;;
38567;SDS011;24338;48.280;10.970;2022-11-15T14:30:39;3.63;;;2.30;;
38567;SDS011;24338;48.280;10.970;2022-11-15T14:33:17;6.28;;;2.55;;
38567;SDS011;24338;48.280;10.970;2022-11-15T14:35:55;5.45;;;2.25;;
38567;SDS011;24338;48.280;10.970;2022-11-15T14:38:24;4.43;;;2.47;;
38567;SDS011;24338;48.280;10.970;2022-11-15T14:40:52;4.30;;;2.65;;
38567;SDS011;24338;48.280;10.970;2022-11-15T14:43:20;6.45;;;3.15;;
38567;SDS011;24338;48.280;10.970;2022-11-15T14:45:47;4.10;;;2.42;;
38567;SDS011;24338;48.280;10.970;2022-11-15T14:48:14;6.30;;;2.80;;
38567;SDS011;24338;48.280;10.970;2022-11-15T14:50:41;6.63;;;2.85;;
38567;SDS011;24338;48.280;10.970;2022-11-15T14:53:11;5.53;;;3.10;;
38567;SDS011;24338;48.280;10.970;2022-11-15T14:55:39;8.45;;;3.03;;
38567;SDS011;24338;48.280;10.970;2022-11-15T14:58:06;4.63;;;2.97;;
38567;SDS011;24338;48.280;10.970;2022-11-15T15:00:37;8.40;;;3.65;;
38567;SDS011;24338;48.280;10.970;2022-11-15T15:03:06;6.00;;;3.33;;
38567;SDS011;24338;48.280;10.970;2022-11-15T15:05:34;7.43;;;4.13;;
38567;SDS011;24338;48.280;10.970;2022-11-15T15:08:09;7.22;;;4.40;;
38567;SDS011;24338;48.280;10.970;2022-11-15T15:10:41;5.55;;;3.53;;
38567;SDS011;24338;48.280;10.970;2022-11-15T15:13:20;6.10;;;3.15;;
38567;SDS011;24338;48.280;10.970;2022-11-15T15:15:49;8.07;;;3.92;;
38567;SDS011;24338;48.280;10.970;2022-11-15T15:18:17;5.20;;;4.03;;
38567;SDS011;24338;48.280;10.970;2022-11-15T15:20:55;6.57;;;4.00;;
38567;SDS011;24338;48.280;10.970;2022-11-15T15:23:26;6.22;;;4.35;;
38567;SDS011;24338;48.280;10.970;2022-11-15T15:25:55;7.10;;;4.85;;
38567;SDS011;24338;48.280;10.970;2022-11-15T15:28:22;10.65;;;3.92;;
38567;SDS011;24338;48.280;10.970;2022-11-15T15:30:49;7.47;;;4.20;;
38567;SDS011;24338;48.280;10.970;2022-11-15T15:33:16;11.68;;;4.47;;
38567;SDS011;24338;48.280;10.970;2022-11-15T15:35:43;6.50;;;4.20;;
38567;SDS011;24338;48.280;10.970;2022-11-15T15:38:11;12.05;;;4.80;;
38567;SDS011;24338;48.280;10.970;2022-11-15T15:40:38;8.98;;;5.75;;
38567;SDS011;24338;48.280;10.970;2022-11-15T15:43:05;9.25;;;4.75;;
38567;SDS011;24338;48.280;10.970;2022-11-15T15:45:36;8.13;;;5.18;;
38567;SDS011;24338;48.280;10.970;2022-11-15T15:48:05;13.00;;;7.20;;
38567;SDS011;24338;48.280;10.970;2022-11-15T15:50:37;10.80;;;6.15;;
38567;SDS011;24338;48.280;10.970;2022-11-15T15:53:08;8.60;;;5.60;;
38567;SDS011;24338;48.280;10.970;2022-11-15T15:55:36;9.85;;;6.78;;
38567;SDS011;24338;48.280;10.970;2022-11-15T15:58:04;11.85;;;6.45;;
38567;SDS011;24338;48.280;10.970;2022-11-15T16:00:32;10.80;;;7.13;;
38567;SDS011;24338;48.280;10.970;2022-11-15T16:03:00;13.98;;;8.35;;
38567;SDS011;24338;48.280;10.970;2022-11-15T16:05:27;16.42;;;10.32;;
38567;SDS011;24338;48.280;10.970;2022-11-15T16:07:54;18.23;;;10.93;;
38567;SDS011;24338;48.280;10.970;2022-11-15T16:10:25;15.38;;;11.23;;
38567;SDS011;24338;48.280;10.970;2022-11-15T16:12:54;17.48;;;11.32;;
38567;SDS011;24338;48.280;10.970;2022-11-15T16:15:23;17.33;;;11.20;;
38567;SDS011;24338;48.280;10.970;2022-11-15T16:17:53;18.98;;;11.00;;
38567;SDS011;24338;48.280;10.970;2022-11-15T16:22:59;24.65;;;17.45;;
38567;SDS011;24338;48.280;10.970;2022-11-15T16:25:37;32.50;;;18.90;;
38567;SDS011;24338;48.280;10.970;2022-11-15T16:28:15;33.22;;;21.48;;
38567;SDS011;24338;48.280;10.970;2022-11-15T16:30:42;17.55;;;13.45;;
38567;SDS011;24338;48.280;10.970;2022-11-15T16:33:09;20.42;;;14.35;;
38567;SDS011;24338;48.280;10.970;2022-11-15T16:35:36;20.17;;;12.32;;
38567;SDS011;24338;48.280;10.970;2022-11-15T16:38:03;21.20;;;12.27;;
38567;SDS011;24338;48.280;10.970;2022-11-15T16:40:32;15.75;;;10.40;;
38567;SDS011;24338;48.280;10.970;2022-11-15T16:43:01;17.15;;;11.20;;
38567;SDS011;24338;48.280;10.970;2022-11-15T16:45:29;17.38;;;10.95;;
38567;SDS011;24338;48.280;10.970;2022-11-15T16:47:57;19.20;;;12.85;;
38567;SDS011;24338;48.280;10.970;2022-11-15T16:50:25;27.05;;;16.05;;
38567;SDS011;24338;48.280;10.970;2022-11-15T16:52:54;27.05;;;14.43;;
38567;SDS011;24338;48.280;10.970;2022-11-15T16:55:23;26.05;;;15.52;;
38567;SDS011;24338;48.280;10.970;2022-11-15T16:57:53;23.70;;;16.67;;
38567;SDS011;24338;48.280;10.970;2022-11-15T17:00:23;24.98;;;17.70;;
38567;SDS011;24338;48.280;10.970;2022-11-15T17:02:51;25.25;;;18.58;;
38567;SDS011;24338;48.280;10.970;2022-11-15T17:05:19;23.02;;;15.18;;
38567;SDS011;24338;48.280;10.970;2022-11-15T17:07:48;30.98;;;21.08;;
38567;SDS011;24338;48.280;10.970;2022-11-15T17:10:17;28.73;;;21.00;;
38567;SDS011;24338;48.280;10.970;2022-11-15T17:12:44;28.48;;;20.27;;